sensor_id;sensor_type;location;lat;lon;timestamp;pressure;altitude;pressure_sealevel;temperature;humidity
45369;BME280;51342;55.250;37.668;2023-03-14T00:00:11;99440.13;;;-4.78;69.73
45369;BME280;51342;55.250;37.668;2023-03-14T00:02:43;99438.84;;;-4.74;70.03
45369;BME280;51342;55.250;37.668;2023-03-14T00:05:15;99421.50;;;-4.71;69.89
45369;BME280;51342;55.250;37.668;2023-03-14T00:07:46;99426.91;;;-4.68;69.87
45369;BME280;51342;55.250;37.668;2023-03-14T00:10:18;99418.59;;;-4.67;69.95
45369;BME280;51342;55.250;37.668;2023-03-14T00:12:49;99407.97;;;-4.65;69.67
45369;BME280;51342;55.250;37.668;2023-03-14T00:15:21;99400.88;;;-4.60;69.69
45369;BME280;51342;55.250;37.668;2023-03-14T00:17:52;99386.47;;;-4.61;69.67
45369;BME280;51342;55.250;37.668;2023-03-14T00:20:24;99363.75;;;-4.61;69.83
45369;BME280;51342;55.250;37.668;2023-03-14T00:22:55;99377.94;;;-4.55;69.67
45369;BME280;51342;55.250;37.668;2023-03-14T00:25:27;99355.41;;;-4.53;69.81
45369;BME280;51342;55.250;37.668;2023-03-14T00:27:58;99357.50;;;-4.49;69.83
45369;BME280;51342;55.250;37.668;2023-03-14T00:30:29;99352.47;;;-4.49;69.83
45369;BME280;51342;55.250;37.668;2023-03-14T00:33:01;99356.41;;;-4.44;69.98
45369;BME280;51342;55.250;37.668;2023-03-14T00:35:32;99346.50;;;-4.42;70.10
45369;BME280;51342;55.250;37.668;2023-03-14T00:38:03;99347.69;;;-4.39;70.35
45369;BME280;51342;55.250;37.668;2023-03-14T00:40:39;99342.66;;;-4.39;70.51
45369;BME280;51342;55.250;37.668;2023-03-14T00:43:10;99339.38;;;-4.38;70.75
45369;BME280;51342;55.250;37.668;2023-03-14T00:45:41;99347.47;;;-4.33;70.83
45369;BME280;51342;55.250;37.668;2023-03-14T00:48:13;99330.69;;;-4.33;71.03
45369;BME280;51342;55.250;37.668;2023-03-14T00:50:44;99335.00;;;-4.32;71.25
45369;BME280;51342;55.250;37.668;2023-03-14T00:53:16;99321.66;;;-4.31;71.40
45369;BME280;51342;55.250;37.668;2023-03-14T00:55:48;99326.13;;;-4.28;71.62
45369;BME280;51342;55.250;37.668;2023-03-14T00:58:20;99329.56;;;-4.28;71.64
45369;BME280;51342;55.250;37.668;2023-03-14T01:00:51;99331.53;;;-4.25;71.87
45369;BME280;51342;55.250;37.668;2023-03-14T01:03:23;99334.22;;;-4.23;71.92
45369;BME280;51342;55.250;37.668;2023-03-14T01:06:06;99323.53;;;-4.21;72.14
45369;BME280;51342;55.250;37.668;2023-03-14T01:08:39;99321.66;;;-4.15;72.35
45369;BME280;51342;55.250;37.668;2023-03-14T01:11:13;99318.59;;;-4.12;72.53
45369;BME280;51342;55.250;37.668;2023-03-14T01:13:46;99315.66;;;-4.08;72.54
45369;BME280;51342;55.250;37.668;2023-03-14T01:16:19;99313.44;;;-4.05;72.83
45369;BME280;51342;55.250;37.668;2023-03-14T01:18:51;99313.06;;;-4.01;73.12
45369;BME280;51342;55.250;37.668;2023-03-14T01:21:24;99315.75;;;-4.00;73.01
45369;BME280;51342;55.250;37.668;2023-03-14T01:23:58;99310.13;;;-3.97;73.16
45369;BME280;51342;55.250;37.668;2023-03-14T01:26:31;99316.25;;;-3.95;73.29
45369;BME280;51342;55.250;37.668;2023-03-14T01:29:03;99311.50;;;-3.92;73.54
45369;BME280;51342;55.250;37.668;2023-03-14T01:31:37;99312.56;;;-3.90;73.74
45369;BME280;51342;55.250;37.668;2023-03-14T01:34:08;99317.03;;;-3.87;73.87
45369;BME280;51342;55.250;37.668;2023-03-14T01:36:40;99294.16;;;-3.89;73.91
45369;BME280;51342;55.250;37.668;2023-03-14T01:39:11;99290.78;;;-3.81;74.03
45369;BME280;51342;55.250;37.668;2023-03-14T01:41:44;99277.59;;;-3.78;74.23
45369;BME280;51342;55.250;37.668;2023-03-14T01:44:15;99259.00;;;-3.79;74.45
45369;BME280;51342;55.250;37.668;2023-03-14T01:46:46;99263.22;;;-3.70;74.50
45369;BME280;51342;55.250;37.668;2023-03-14T01:49:27;99264.31;;;-3.68;74.55
45369;BME280;51342;55.250;37.668;2023-03-14T01:52:07;99258.38;;;-3.85;74.75
45369;BME280;51342;55.250;37.668;2023-03-14T01:54:46;99258.75;;;-3.73;74.87
45369;BME280;51342;55.250;37.668;2023-03-14T01:57:25;99245.13;;;-3.66;75.08
45369;BME280;51342;55.250;37.668;2023-03-14T02:00:07;99240.56;;;-3.62;75.12
45369;BME280;51342;55.250;37.668;2023-03-14T02:02:51;99233.44;;;-3.57;75.20
45369;BME280;51342;55.250;37.668;2023-03-14T02:05:29;99222.00;;;-3.54;75.33
45369;BME280;51342;55.250;37.668;2023-03-14T02:08:14;99213.09;;;-3.50;75.68
45369;BME280;51342;55.250;37.668;2023-03-14T02:10:51;99214.47;;;-3.45;75.82
45369;BME280;51342;55.250;37.668;2023-03-14T02:13:29;99213.16;;;-3.41;75.87
45369;BME280;51342;55.250;37.668;2023-03-14T02:16:35;99207.53;;;-3.39;76.07
45369;BME280;51342;55.250;37.668;2023-03-14T02:19:36;99210.06;;;-3.39;76.15
45369;BME280;51342;55.250;37.668;2023-03-14T02:22:24;99207.75;;;-3.29;76.45
45369;BME280;51342;55.250;37.668;2023-03-14T02:25:09;99205.66;;;-3.24;76.45
45369;BME280;51342;55.250;37.668;2023-03-14T02:27:44;99201.22;;;-3.18;76.72
45369;BME280;51342;55.250;37.668;2023-03-14T02:30:25;99195.88;;;-3.12;76.72
45369;BME280;51342;55.250;37.668;2023-03-14T02:33:01;99174.47;;;-3.07;76.93
45369;BME280;51342;55.250;37.668;2023-03-14T02:35:41;99160.66;;;-3.02;76.95
45369;BME280;51342;55.250;37.668;2023-03-14T02:38:31;99155.31;;;-2.97;76.98
45369;BME280;51342;55.250;37.668;2023-03-14T02:41:07;99151.03;;;-2.89;77.26
45369;BME280;51342;55.250;37.668;2023-03-14T02:43:44;99161.47;;;-2.86;77.30
45369;BME280;51342;55.250;37.668;2023-03-14T02:46:19;99154.31;;;-2.81;77.44
45369;BME280;51342;55.250;37.668;2023-03-14T02:49:00;99148.97;;;-2.76;77.51
45369;BME280;51342;55.250;37.668;2023-03-14T02:51:33;99150.34;;;-2.71;77.87
45369;BME280;51342;55.250;37.668;2023-03-14T02:54:05;99159.28;;;-2.65;77.67
45369;BME280;51342;55.250;37.668;2023-03-14T02:56:37;99152.72;;;-2.63;77.92
45369;BME280;51342;55.250;37.668;2023-03-14T02:59:09;99136.97;;;-2.61;78.08
45369;BME280;51342;55.250;37.668;2023-03-14T03:01:50;99123.69;;;-2.58;78.29
45369;BME280;51342;55.250;37.668;2023-03-14T03:04:21;99117.13;;;-2.56;78.28
45369;BME280;51342;55.250;37.668;2023-03-14T03:06:52;99108.06;;;-2.54;78.42
45369;BME280;51342;55.250;37.668;2023-03-14T03:09:24;99116.97;;;-2.58;78.36
45369;BME280;51342;55.250;37.668;2023-03-14T03:11:56;99113.72;;;-2.48;78.56
45369;BME280;51342;55.250;37.668;2023-03-14T03:14:30;99119.53;;;-2.49;78.68
45369;BME280;51342;55.250;37.668;2023-03-14T03:17:05;99133.25;;;-2.47;78.99
45369;BME280;51342;55.250;37.668;2023-03-14T03:19:37;99122.94;;;-2.40;78.98
45369;BME280;51342;55.250;37.668;2023-03-14T03:22:08;99122.50;;;-2.36;78.99
45369;BME280;51342;55.250;37.668;2023-03-14T03:24:40;99118.34;;;-2.35;79.23
45369;BME280;51342;55.250;37.668;2023-03-14T03:27:11;99129.81;;;-2.30;79.28
45369;BME280;51342;55.250;37.668;2023-03-14T03:29:43;99125.78;;;-2.28;79.39
45369;BME280;51342;55.250;37.668;2023-03-14T03:32:14;99106.72;;;-2.25;79.46
45369;BME280;51342;55.250;37.668;2023-03-14T03:34:45;99097.78;;;-2.21;79.43
45369;BME280;51342;55.250;37.668;2023-03-14T03:37:17;99098.81;;;-2.19;79.26
45369;BME280;51342;55.250;37.668;2023-03-14T03:39:52;99087.19;;;-2.17;79.90
45369;BME280;51342;55.250;37.668;2023-03-14T03:42:24;99088.53;;;-2.12;79.70
45369;BME280;51342;55.250;37.668;2023-03-14T03:44:57;99096.25;;;-2.10;79.67
45369;BME280;51342;55.250;37.668;2023-03-14T03:47:30;99079.59;;;-2.08;79.82
45369;BME280;51342;55.250;37.668;2023-03-14T03:50:02;99074.78;;;-2.05;80.03
45369;BME280;51342;55.250;37.668;2023-03-14T03:52:34;99071.81;;;-2.01;80.07
45369;BME280;51342;55.250;37.668;2023-03-14T03:55:05;99070.31;;;-1.99;79.93
45369;BME280;51342;55.250;37.668;2023-03-14T03:57:37;99063.16;;;-1.95;80.04
45369;BME280;51342;55.250;37.668;2023-03-14T04:00:10;99061.50;;;-1.94;80.05
45369;BME280;51342;55.250;37.668;2023-03-14T04:02:46;99046.72;;;-1.90;80.26
45369;BME280;51342;55.250;37.668;2023-03-14T04:05:20;99048.06;;;-1.84;80.08
45369;BME280;51342;55.250;37.668;2023-03-14T04:07:58;99040.75;;;-1.81;80.29
45369;BME280;51342;55.250;37.668;2023-03-14T04:10:36;99043.69;;;-1.77;80.60
45369;BME280;51342;55.250;37.668;2023-03-14T04:13:24;99044.00;;;-1.74;80.49
45369;BME280;51342;55.250;37.668;2023-03-14T04:15:58;99045.34;;;-1.69;80.33
45369;BME280;51342;55.250;37.668;2023-03-14T04:18:32;99037.25;;;-1.65;80.27
45369;BME280;51342;55.250;37.668;2023-03-14T04:21:03;99028.41;;;-1.60;80.42
45369;BME280;51342;55.250;37.668;2023-03-14T04:23:45;99026.19;;;-1.56;80.31
45369;BME280;51342;55.250;37.668;2023-03-14T04:26:16;99021.69;;;-1.50;80.44
45369;BME280;51342;55.250;37.668;2023-03-14T04:28:48;99012.56;;;-1.48;80.26
45369;BME280;51342;55.250;37.668;2023-03-14T04:31:21;99011.50;;;-1.42;80.53
45369;BME280;51342;55.250;37.668;2023-03-14T04:33:53;99012.94;;;-1.35;80.63
45369;BME280;51342;55.250;37.668;2023-03-14T04:36:32;99010.84;;;-1.30;80.46
45369;BME280;51342;55.250;37.668;2023-03-14T04:39:08;98999.03;;;-1.30;80.58
45369;BME280;51342;55.250;37.668;2023-03-14T04:41:44;98995.56;;;-1.22;80.44
45369;BME280;51342;55.250;37.668;2023-03-14T04:44:16;98990.13;;;-1.16;80.58
45369;BME280;51342;55.250;37.668;2023-03-14T04:46:47;98991.59;;;-1.10;80.55
45369;BME280;51342;55.250;37.668;2023-03-14T04:49:19;98998.84;;;-1.04;80.33
45369;BME280;51342;55.250;37.668;2023-03-14T04:51:50;98997.75;;;-0.97;80.27
45369;BME280;51342;55.250;37.668;2023-03-14T04:54:22;98983.84;;;-0.92;80.41
45369;BME280;51342;55.250;37.668;2023-03-14T04:56:58;98977.53;;;-0.87;80.37
45369;BME280;51342;55.250;37.668;2023-03-14T04:59:30;98971.22;;;-0.82;80.22
45369;BME280;51342;55.250;37.668;2023-03-14T05:02:08;98979.81;;;-0.90;80.03
45369;BME280;51342;55.250;37.668;2023-03-14T05:04:58;98991.47;;;-0.73;79.88
45369;BME280;51342;55.250;37.668;2023-03-14T05:07:47;98971.97;;;-0.64;79.57
45369;BME280;51342;55.250;37.668;2023-03-14T05:10:43;98971.00;;;-0.56;79.34
45369;BME280;51342;55.250;37.668;2023-03-14T05:13:35;98979.28;;;-0.48;79.07
45369;BME280;51342;55.250;37.668;2023-03-14T05:16:35;98978.47;;;-0.39;78.73
45369;BME280;51342;55.250;37.668;2023-03-14T05:19:20;98987.16;;;-0.27;78.23
45369;BME280;51342;55.250;37.668;2023-03-14T05:22:14;98957.31;;;-0.19;77.76
45369;BME280;51342;55.250;37.668;2023-03-14T05:25:02;98971.59;;;-0.11;77.36
45369;BME280;51342;55.250;37.668;2023-03-14T05:27:35;98977.44;;;-0.02;76.99
45369;BME280;51342;55.250;37.668;2023-03-14T05:30:26;98955.09;;;0.05;76.76
45369;BME280;51342;55.250;37.668;2023-03-14T05:33:29;98936.03;;;0.10;76.31
45369;BME280;51342;55.250;37.668;2023-03-14T05:36:14;98949.44;;;0.17;76.03
45369;BME280;51342;55.250;37.668;2023-03-14T05:39:05;98936.34;;;0.23;75.50
45369;BME280;51342;55.250;37.668;2023-03-14T05:42:08;98912.03;;;0.26;75.82
45369;BME280;51342;55.250;37.668;2023-03-14T05:45:03;98932.78;;;0.31;75.11
45369;BME280;51342;55.250;37.668;2023-03-14T05:47:57;98927.44;;;0.38;75.19
45369;BME280;51342;55.250;37.668;2023-03-14T05:50:46;98924.63;;;0.45;75.00
45369;BME280;51342;55.250;37.668;2023-03-14T05:53:41;98886.63;;;0.47;74.65
45369;BME280;51342;55.250;37.668;2023-03-14T05:56:44;98927.47;;;0.59;74.34
45369;BME280;51342;55.250;37.668;2023-03-14T05:59:18;98904.56;;;0.69;73.98
45369;BME280;51342;55.250;37.668;2023-03-14T06:02:02;98917.53;;;0.82;73.81
45369;BME280;51342;55.250;37.668;2023-03-14T06:04:41;98930.25;;;0.92;73.44
45369;BME280;51342;55.250;37.668;2023-03-14T06:07:13;98923.09;;;0.98;73.01
45369;BME280;51342;55.250;37.668;2023-03-14T06:09:47;98915.84;;;1.03;72.46
45369;BME280;51342;55.250;37.668;2023-03-14T06:12:22;98938.38;;;1.09;72.22
45369;BME280;51342;55.250;37.668;2023-03-14T06:14:56;98926.00;;;1.13;72.17
45369;BME280;51342;55.250;37.668;2023-03-14T06:17:30;98917.31;;;1.21;71.81
45369;BME280;51342;55.250;37.668;2023-03-14T06:20:11;98925.84;;;1.32;71.71
45369;BME280;51342;55.250;37.668;2023-03-14T06:22:45;98945.16;;;1.40;71.23
45369;BME280;51342;55.250;37.668;2023-03-14T06:25:18;98946.31;;;1.44;71.12
45369;BME280;51342;55.250;37.668;2023-03-14T06:27:53;98948.09;;;1.45;71.04
45369;BME280;51342;55.250;37.668;2023-03-14T06:30:27;98919.41;;;1.47;70.56
45369;BME280;51342;55.250;37.668;2023-03-14T06:33:01;98936.72;;;1.51;70.64
45369;BME280;51342;55.250;37.668;2023-03-14T06:35:35;98937.00;;;1.54;70.47
45369;BME280;51342;55.250;37.668;2023-03-14T06:38:09;98945.75;;;1.58;69.86
45369;BME280;51342;55.250;37.668;2023-03-14T06:40:44;98940.78;;;1.59;70.14
45369;BME280;51342;55.250;37.668;2023-03-14T06:43:23;98928.06;;;1.59;69.90
45369;BME280;51342;55.250;37.668;2023-03-14T06:45:58;98926.63;;;1.63;69.63
45369;BME280;51342;55.250;37.668;2023-03-14T06:48:30;98920.75;;;1.64;69.30
45369;BME280;51342;55.250;37.668;2023-03-14T06:51:03;98921.09;;;1.69;69.56
45369;BME280;51342;55.250;37.668;2023-03-14T06:53:36;98928.47;;;1.76;69.54
45369;BME280;51342;55.250;37.668;2023-03-14T06:56:09;98913.41;;;1.79;69.18
45369;BME280;51342;55.250;37.668;2023-03-14T06:58:43;98921.19;;;1.80;68.89
45369;BME280;51342;55.250;37.668;2023-03-14T07:01:27;98919.78;;;1.84;68.82
45369;BME280;51342;55.250;37.668;2023-03-14T07:04:04;98908.38;;;1.91;68.69
45369;BME280;51342;55.250;37.668;2023-03-14T07:06:38;98901.31;;;1.98;68.43
45369;BME280;51342;55.250;37.668;2023-03-14T07:09:14;98895.06;;;2.05;68.14
45369;BME280;51342;55.250;37.668;2023-03-14T07:11:54;98892.31;;;2.13;68.10
45369;BME280;51342;55.250;37.668;2023-03-14T07:14:30;98908.09;;;2.20;67.42
45369;BME280;51342;55.250;37.668;2023-03-14T07:17:03;98905.22;;;2.27;67.54
45369;BME280;51342;55.250;37.668;2023-03-14T07:19:34;98911.72;;;2.33;67.04
45369;BME280;51342;55.250;37.668;2023-03-14T07:22:08;98893.41;;;2.39;66.86
45369;BME280;51342;55.250;37.668;2023-03-14T07:24:42;98893.00;;;2.45;66.82
45369;BME280;51342;55.250;37.668;2023-03-14T07:27:16;98892.69;;;2.52;66.27
45369;BME280;51342;55.250;37.668;2023-03-14T07:29:49;98915.44;;;2.60;66.38
45369;BME280;51342;55.250;37.668;2023-03-14T07:32:24;98922.69;;;2.66;66.11
45369;BME280;51342;55.250;37.668;2023-03-14T07:34:59;98919.94;;;2.75;65.90
45369;BME280;51342;55.250;37.668;2023-03-14T07:37:34;98917.06;;;2.82;65.67
45369;BME280;51342;55.250;37.668;2023-03-14T07:40:08;98917.50;;;2.88;65.54
45369;BME280;51342;55.250;37.668;2023-03-14T07:42:45;98907.88;;;2.96;65.41
45369;BME280;51342;55.250;37.668;2023-03-14T07:45:32;98905.00;;;3.03;64.98
45369;BME280;51342;55.250;37.668;2023-03-14T07:48:03;98925.22;;;3.11;64.67
45369;BME280;51342;55.250;37.668;2023-03-14T07:50:35;98910.66;;;3.22;64.33
45369;BME280;51342;55.250;37.668;2023-03-14T07:53:06;98921.66;;;3.33;64.38
45369;BME280;51342;55.250;37.668;2023-03-14T07:55:40;98913.00;;;3.42;64.37
45369;BME280;51342;55.250;37.668;2023-03-14T07:58:16;98901.00;;;3.53;63.88
45369;BME280;51342;55.250;37.668;2023-03-14T08:00:52;98906.00;;;3.63;63.71
45369;BME280;51342;55.250;37.668;2023-03-14T08:03:26;98895.50;;;3.72;63.14
45369;BME280;51342;55.250;37.668;2023-03-14T08:06:00;98914.53;;;3.76;62.68
45369;BME280;51342;55.250;37.668;2023-03-14T08:08:36;98914.97;;;3.82;62.58
45369;BME280;51342;55.250;37.668;2023-03-14T08:11:09;98915.41;;;3.88;62.05
45369;BME280;51342;55.250;37.668;2023-03-14T08:13:42;98910.72;;;3.94;61.88
45369;BME280;51342;55.250;37.668;2023-03-14T08:16:21;98913.13;;;4.04;62.05
45369;BME280;51342;55.250;37.668;2023-03-14T08:18:53;98906.31;;;4.16;62.13
45369;BME280;51342;55.250;37.668;2023-03-14T08:21:25;98908.59;;;4.25;61.56
45369;BME280;51342;55.250;37.668;2023-03-14T08:23:59;98915.72;;;4.29;60.97
45369;BME280;51342;55.250;37.668;2023-03-14T08:26:31;98921.25;;;4.35;60.69
45369;BME280;51342;55.250;37.668;2023-03-14T08:29:03;98914.88;;;4.42;60.33
45369;BME280;51342;55.250;37.668;2023-03-14T08:31:37;98916.22;;;4.48;59.90
45369;BME280;51342;55.250;37.668;2023-03-14T08:34:11;98910.72;;;4.56;59.84
45369;BME280;51342;55.250;37.668;2023-03-14T08:36:46;98909.03;;;4.56;59.10
45369;BME280;51342;55.250;37.668;2023-03-14T08:39:20;98915.16;;;4.58;58.90
45369;BME280;51342;55.250;37.668;2023-03-14T08:41:55;98897.91;;;4.56;58.88
45369;BME280;51342;55.250;37.668;2023-03-14T08:44:28;98903.75;;;4.66;58.51
45369;BME280;51342;55.250;37.668;2023-03-14T08:47:01;98895.69;;;4.73;58.61
45369;BME280;51342;55.250;37.668;2023-03-14T08:49:33;98894.72;;;4.85;58.51
45369;BME280;51342;55.250;37.668;2023-03-14T08:52:07;98898.50;;;4.90;58.13
45369;BME280;51342;55.250;37.668;2023-03-14T08:54:45;98906.59;;;4.96;58.33
45369;BME280;51342;55.250;37.668;2023-03-14T08:57:18;98917.25;;;5.02;58.02
45369;BME280;51342;55.250;37.668;2023-03-14T08:59:55;98909.94;;;5.08;57.86
45369;BME280;51342;55.250;37.668;2023-03-14T09:02:32;98912.81;;;5.13;57.63
45369;BME280;51342;55.250;37.668;2023-03-14T09:05:06;98906.31;;;5.18;57.77
45369;BME280;51342;55.250;37.668;2023-03-14T09:07:41;98903.66;;;5.16;57.13
45369;BME280;51342;55.250;37.668;2023-03-14T09:10:16;98904.66;;;5.18;56.92
45369;BME280;51342;55.250;37.668;2023-03-14T09:12:49;98897.34;;;5.24;56.72
45369;BME280;51342;55.250;37.668;2023-03-14T09:15:26;98900.00;;;5.26;57.02
45369;BME280;51342;55.250;37.668;2023-03-14T09:17:59;98899.72;;;5.35;56.65
45369;BME280;51342;55.250;37.668;2023-03-14T09:20:32;98887.09;;;5.38;56.43
45369;BME280;51342;55.250;37.668;2023-03-14T09:23:06;98877.13;;;5.42;55.52
45369;BME280;51342;55.250;37.668;2023-03-14T09:25:39;98878.59;;;5.52;55.35
45369;BME280;51342;55.250;37.668;2023-03-14T09:28:15;98885.81;;;5.57;55.28
45369;BME280;51342;55.250;37.668;2023-03-14T09:30:49;98906.63;;;5.62;55.32
45369;BME280;51342;55.250;37.668;2023-03-14T09:33:24;98909.38;;;5.65;55.63
45369;BME280;51342;55.250;37.668;2023-03-14T09:35:58;98913.03;;;5.69;56.65
45369;BME280;51342;55.250;37.668;2023-03-14T09:38:34;98908.19;;;5.73;55.42
45369;BME280;51342;55.250;37.668;2023-03-14T09:41:28;98905.63;;;5.73;55.46
45369;BME280;51342;55.250;37.668;2023-03-14T09:44:44;98908.28;;;5.75;55.60
45369;BME280;51342;55.250;37.668;2023-03-14T09:47:12;98908.47;;;5.78;55.71
45369;BME280;51342;55.250;37.668;2023-03-14T09:49:45;98907.00;;;5.81;55.56
45369;BME280;51342;55.250;37.668;2023-03-14T09:52:28;98902.16;;;5.86;55.03
45369;BME280;51342;55.250;37.668;2023-03-14T09:55:28;98887.16;;;5.92;54.90
45369;BME280;51342;55.250;37.668;2023-03-14T09:58:08;98896.41;;;6.03;54.55
45369;BME280;51342;55.250;37.668;2023-03-14T10:00:41;98893.63;;;6.14;54.51
45369;BME280;51342;55.250;37.668;2023-03-14T10:03:34;98895.41;;;6.15;54.83
45369;BME280;51342;55.250;37.668;2023-03-14T10:06:11;98902.00;;;6.24;54.05
45369;BME280;51342;55.250;37.668;2023-03-14T10:08:45;98909.19;;;6.30;54.15
45369;BME280;51342;55.250;37.668;2023-03-14T10:11:25;98893.78;;;6.30;54.27
45369;BME280;51342;55.250;37.668;2023-03-14T10:14:07;98883.50;;;6.30;53.49
45369;BME280;51342;55.250;37.668;2023-03-14T10:16:46;98886.53;;;6.37;53.02
45369;BME280;51342;55.250;37.668;2023-03-14T10:19:17;98884.53;;;6.47;53.22
45369;BME280;51342;55.250;37.668;2023-03-14T10:21:52;98875.22;;;6.49;53.22
45369;BME280;51342;55.250;37.668;2023-03-14T10:24:52;98889.38;;;6.42;53.80
45369;BME280;51342;55.250;37.668;2023-03-14T10:27:29;98889.09;;;6.37;53.19
45369;BME280;51342;55.250;37.668;2023-03-14T10:30:07;98885.97;;;6.28;52.92
45369;BME280;51342;55.250;37.668;2023-03-14T10:32:45;98877.06;;;6.23;53.61
45369;BME280;51342;55.250;37.668;2023-03-14T10:38:00;98874.66;;;6.11;53.45
45369;BME280;51342;55.250;37.668;2023-03-14T10:40:38;98874.41;;;6.07;52.89
45369;BME280;51342;55.250;37.668;2023-03-14T10:43:17;98829.06;;;6.07;52.97
45369;BME280;51342;55.250;37.668;2023-03-14T10:45:57;98856.97;;;6.16;53.06
45369;BME280;51342;55.250;37.668;2023-03-14T10:48:35;98866.81;;;6.23;53.18
45369;BME280;51342;55.250;37.668;2023-03-14T10:54:29;98875.91;;;6.18;52.94
45369;BME280;51342;55.250;37.668;2023-03-14T10:57:04;98870.53;;;6.14;53.53
45369;BME280;51342;55.250;37.668;2023-03-14T10:59:41;98865.91;;;6.08;53.13
45369;BME280;51342;55.250;37.668;2023-03-14T11:07:45;98862.63;;;6.10;53.01
45369;BME280;51342;55.250;37.668;2023-03-14T11:13:11;98876.41;;;6.13;53.46
45369;BME280;51342;55.250;37.668;2023-03-14T11:16:02;98860.63;;;6.06;53.24
45369;BME280;51342;55.250;37.668;2023-03-14T11:21:59;98867.38;;;6.04;52.72
45369;BME280;51342;55.250;37.668;2023-03-14T11:30:55;98867.66;;;6.09;52.76
45369;BME280;51342;55.250;37.668;2023-03-14T11:36:37;98857.69;;;6.28;52.46
45369;BME280;51342;55.250;37.668;2023-03-14T11:39:15;98874.38;;;6.35;52.00
45369;BME280;51342;55.250;37.668;2023-03-14T11:41:53;98862.53;;;6.37;51.49
45369;BME280;51342;55.250;37.668;2023-03-14T11:44:39;98880.13;;;6.31;51.43
45369;BME280;51342;55.250;37.668;2023-03-14T11:47:31;98888.25;;;6.24;51.79
45369;BME280;51342;55.250;37.668;2023-03-14T11:52:58;98865.19;;;6.10;52.32
45369;BME280;51342;55.250;37.668;2023-03-14T11:55:37;98881.91;;;6.04;52.52
45369;BME280;51342;55.250;37.668;2023-03-14T12:00:53;98883.13;;;5.96;52.62
45369;BME280;51342;55.250;37.668;2023-03-14T12:03:45;98888.84;;;5.92;52.68
45369;BME280;51342;55.250;37.668;2023-03-14T12:06:40;98882.66;;;5.90;52.81
45369;BME280;51342;55.250;37.668;2023-03-14T12:09:22;98894.44;;;5.86;52.02
45369;BME280;51342;55.250;37.668;2023-03-14T12:11:59;98898.50;;;5.82;53.12
45369;BME280;51342;55.250;37.668;2023-03-14T12:14:37;98900.88;;;5.79;52.98
45369;BME280;51342;55.250;37.668;2023-03-14T12:17:46;98900.09;;;5.67;53.35
45369;BME280;51342;55.250;37.668;2023-03-14T12:20:21;98922.13;;;5.64;53.46
45369;BME280;51342;55.250;37.668;2023-03-14T12:23:04;98915.78;;;5.58;52.81
45369;BME280;51342;55.250;37.668;2023-03-14T12:25:41;98923.19;;;5.54;53.06
45369;BME280;51342;55.250;37.668;2023-03-14T12:28:34;98920.22;;;5.48;52.75
45369;BME280;51342;55.250;37.668;2023-03-14T12:39:56;98929.22;;;5.28;54.15
45369;BME280;51342;55.250;37.668;2023-03-14T12:50:54;98952.06;;;5.12;54.80
45369;BME280;51342;55.250;37.668;2023-03-14T13:10:27;98919.06;;;4.78;55.69
45369;BME280;51342;55.250;37.668;2023-03-14T13:13:21;98933.34;;;4.74;55.43
45369;BME280;51342;55.250;37.668;2023-03-14T13:15:58;98927.00;;;4.69;55.66
45369;BME280;51342;55.250;37.668;2023-03-14T13:18:36;98937.94;;;4.67;55.62
45369;BME280;51342;55.250;37.668;2023-03-14T13:21:24;98931.53;;;4.60;55.61
45369;BME280;51342;55.250;37.668;2023-03-14T13:24:20;98927.28;;;4.61;55.37
45369;BME280;51342;55.250;37.668;2023-03-14T13:26:57;98916.91;;;4.59;55.56
45369;BME280;51342;55.250;37.668;2023-03-14T13:29:31;98912.38;;;4.55;54.95
45369;BME280;51342;55.250;37.668;2023-03-14T13:32:21;98915.75;;;4.54;55.39
45369;BME280;51342;55.250;37.668;2023-03-14T13:34:58;98929.72;;;4.34;56.30
45369;BME280;51342;55.250;37.668;2023-03-14T13:37:39;98929.25;;;4.40;56.22
45369;BME280;51342;55.250;37.668;2023-03-14T13:40:26;98935.97;;;4.38;55.79
45369;BME280;51342;55.250;37.668;2023-03-14T13:43:15;98940.06;;;4.36;55.89
45369;BME280;51342;55.250;37.668;2023-03-14T13:45:55;98923.72;;;4.34;56.43
45369;BME280;51342;55.250;37.668;2023-03-14T13:48:32;98924.09;;;4.27;56.55
45369;BME280;51342;55.250;37.668;2023-03-14T13:51:12;98938.16;;;4.20;57.01
45369;BME280;51342;55.250;37.668;2023-03-14T13:53:52;98928.47;;;4.16;56.87
45369;BME280;51342;55.250;37.668;2023-03-14T13:56:32;98923.25;;;4.14;57.16
45369;BME280;51342;55.250;37.668;2023-03-14T14:02:09;98927.72;;;4.05;57.41
45369;BME280;51342;55.250;37.668;2023-03-14T14:04:43;98927.81;;;4.07;57.36
45369;BME280;51342;55.250;37.668;2023-03-14T14:07:20;98920.13;;;4.07;57.67
45369;BME280;51342;55.250;37.668;2023-03-14T14:09:54;98925.34;;;4.08;57.30
45369;BME280;51342;55.250;37.668;2023-03-14T14:12:34;98919.81;;;4.02;57.35
45369;BME280;51342;55.250;37.668;2023-03-14T14:18:00;98924.91;;;4.02;57.73
45369;BME280;51342;55.250;37.668;2023-03-14T14:20:41;98926.41;;;3.98;57.38
45369;BME280;51342;55.250;37.668;2023-03-14T14:23:21;98930.72;;;3.99;57.65
45369;BME280;51342;55.250;37.668;2023-03-14T14:26:05;98936.63;;;3.98;57.98
45369;BME280;51342;55.250;37.668;2023-03-14T14:28:37;98931.38;;;3.97;57.88
45369;BME280;51342;55.250;37.668;2023-03-14T14:31:25;98944.78;;;3.93;57.55
45369;BME280;51342;55.250;37.668;2023-03-14T14:34:18;98948.31;;;3.95;57.90
45369;BME280;51342;55.250;37.668;2023-03-14T14:36:59;98958.66;;;3.96;57.80
45369;BME280;51342;55.250;37.668;2023-03-14T14:39:34;98951.75;;;3.95;57.50
45369;BME280;51342;55.250;37.668;2023-03-14T14:42:21;98957.56;;;3.93;57.76
45369;BME280;51342;55.250;37.668;2023-03-14T14:44:58;98969.47;;;3.92;57.62
45369;BME280;51342;55.250;37.668;2023-03-14T14:47:36;98961.91;;;3.94;57.90
45369;BME280;51342;55.250;37.668;2023-03-14T14:50:50;98968.16;;;3.86;57.73
45369;BME280;51342;55.250;37.668;2023-03-14T14:53:38;98972.25;;;3.84;57.61
45369;BME280;51342;55.250;37.668;2023-03-14T14:58:59;98975.59;;;3.83;57.60
45369;BME280;51342;55.250;37.668;2023-03-14T15:01:38;98985.72;;;3.81;57.54
45369;BME280;51342;55.250;37.668;2023-03-14T15:04:18;98988.94;;;3.79;57.35